createdAt,value
2023-01-25T00:01:41.907Z,8.80
2023-01-25T00:04:09.451Z,8.10
2023-01-25T00:06:37.518Z,7.97
2023-01-25T00:09:05.895Z,8.43
2023-01-25T00:11:33.484Z,7.17
2023-01-25T00:14:00.947Z,7.30
2023-01-25T00:16:28.490Z,7.73
2023-01-25T00:18:56.045Z,6.93
2023-01-25T00:21:26.006Z,6.97
2023-01-25T00:23:54.204Z,6.30
2023-01-25T00:26:22.279Z,7.03
2023-01-25T00:28:55.410Z,6.83
2023-01-25T00:31:50.293Z,6.90
2023-01-25T00:34:26.791Z,7.73
2023-01-25T00:37:03.438Z,6.17
2023-01-25T00:39:31.165Z,6.97
2023-01-25T00:41:58.686Z,6.00
2023-01-25T00:44:26.917Z,7.87
2023-01-25T00:46:54.452Z,7.50
2023-01-25T00:49:30.969Z,8.83
2023-01-25T00:51:59.525Z,7.77
2023-01-25T00:54:27.295Z,8.47
2023-01-25T00:56:56.577Z,4.93
2023-01-25T00:59:25.984Z,9.07
2023-01-25T01:01:55.471Z,8.77
2023-01-25T01:04:27.080Z,8.63
2023-01-25T01:06:55.242Z,7.80
2023-01-25T01:09:24.823Z,8.90
2023-01-25T01:11:54.270Z,9.50
2023-01-25T01:14:24.355Z,8.97
2023-01-25T01:16:52.038Z,10.57
2023-01-25T01:19:19.845Z,9.27
2023-01-25T01:21:47.830Z,7.10
2023-01-25T01:24:15.460Z,8.83
2023-01-25T01:26:43.271Z,9.00
2023-01-25T01:29:10.930Z,8.03
2023-01-25T01:31:38.583Z,11.83
2023-01-25T01:34:16.341Z,10.20
2023-01-25T01:36:43.961Z,10.00
2023-01-25T01:39:11.621Z,9.60
2023-01-25T01:41:41.936Z,8.50
2023-01-25T01:44:24.183Z,9.77
2023-01-25T01:47:00.046Z,9.07
2023-01-25T01:49:33.947Z,9.20
2023-01-25T01:52:15.417Z,8.53
2023-01-25T01:54:53.375Z,10.43
2023-01-25T01:57:32.746Z,7.93
2023-01-25T02:00:12.126Z,7.60
2023-01-25T02:02:44.577Z,7.20
2023-01-25T02:05:31.535Z,7.30
2023-01-25T02:08:01.369Z,8.47
2023-01-25T02:10:30.445Z,9.33
2023-01-25T02:12:59.644Z,7.33
2023-01-25T02:15:43.170Z,8.63
2023-01-25T02:18:12.499Z,6.90
2023-01-25T02:20:45.058Z,8.80
2023-01-25T02:23:32.791Z,7.83
2023-01-25T02:26:04.695Z,7.27
2023-01-25T02:28:50.982Z,7.77
2023-01-25T02:31:18.834Z,6.87
2023-01-25T02:33:49.536Z,7.33
2023-01-25T02:36:32.241Z,6.60
2023-01-25T02:39:11.892Z,6.10
2023-01-25T02:41:44.915Z,8.00
2023-01-25T02:44:33.540Z,6.67
2023-01-25T02:47:04.490Z,7.60
2023-01-25T02:49:34.684Z,7.47
2023-01-25T02:52:02.590Z,8.47
2023-01-25T02:54:30.948Z,6.60
2023-01-25T02:56:59.013Z,6.03
2023-01-25T02:59:30.418Z,6.83
2023-01-25T03:02:00.385Z,5.57
2023-01-25T03:04:29.036Z,7.83
2023-01-25T03:06:56.708Z,8.93
2023-01-25T03:09:24.360Z,6.83
2023-01-25T03:11:51.941Z,8.67
2023-01-25T03:14:21.925Z,12.00
2023-01-25T03:16:50.360Z,7.07
2023-01-25T03:19:20.858Z,7.27
2023-01-25T03:21:48.480Z,5.73
2023-01-25T03:24:16.063Z,9.07
2023-01-25T03:27:05.290Z,7.00
2023-01-25T03:29:38.901Z,5.53
2023-01-25T03:32:11.842Z,8.17
2023-01-25T03:34:39.875Z,7.10
2023-01-25T03:37:08.143Z,6.40
2023-01-25T03:39:37.352Z,5.00
2023-01-25T03:42:05.116Z,7.80
2023-01-25T03:44:33.603Z,5.57
2023-01-25T03:47:01.266Z,4.70
2023-01-25T03:49:29.902Z,5.90
2023-01-25T03:51:58.115Z,5.43
2023-01-25T03:54:33.916Z,6.67
2023-01-25T03:57:02.056Z,4.27
2023-01-25T03:59:30.573Z,4.37
2023-01-25T04:01:58.219Z,4.03
2023-01-25T04:04:25.709Z,4.07
2023-01-25T04:06:53.872Z,4.33
2023-01-25T04:09:23.561Z,4.73
2023-01-25T04:11:53.785Z,7.13
2023-01-25T04:14:35.114Z,5.30
2023-01-25T04:17:10.942Z,6.83
2023-01-25T04:19:49.561Z,9.40
2023-01-25T04:22:20.244Z,5.10
2023-01-25T04:24:49.681Z,4.20
2023-01-25T04:27:17.128Z,5.77
2023-01-25T04:29:58.413Z,5.00
2023-01-25T04:32:27.337Z,6.50
2023-01-25T04:34:55.588Z,5.10
2023-01-25T04:37:26.593Z,4.87
2023-01-25T04:39:58.237Z,4.93
2023-01-25T04:42:27.078Z,3.87
2023-01-25T04:44:57.064Z,4.17
2023-01-25T04:47:25.048Z,5.00
2023-01-25T04:49:52.614Z,4.07
2023-01-25T04:52:24.115Z,5.03
2023-01-25T04:54:51.790Z,5.00
2023-01-25T04:57:19.228Z,4.57
2023-01-25T04:59:51.239Z,3.87
2023-01-25T05:02:19.528Z,4.23
2023-01-25T05:04:47.581Z,5.07
2023-01-25T05:07:15.163Z,6.23
2023-01-25T05:09:43.153Z,5.53
2023-01-25T05:12:13.769Z,4.23
2023-01-25T05:14:54.845Z,4.60
2023-01-25T05:17:23.558Z,3.60
2023-01-25T05:19:51.034Z,3.73
2023-01-25T05:22:21.981Z,5.13
2023-01-25T05:24:53.490Z,4.17
2023-01-25T05:27:22.162Z,4.67
2023-01-25T05:29:56.944Z,5.13
2023-01-25T05:32:36.921Z,4.67
2023-01-25T05:35:04.782Z,5.37
2023-01-25T05:37:32.384Z,4.53
2023-01-25T05:40:08.349Z,4.33
2023-01-25T05:42:38.768Z,5.10
2023-01-25T05:45:14.748Z,4.10
2023-01-25T05:47:43.526Z,4.50
2023-01-25T05:50:11.514Z,4.50
2023-01-25T05:52:50.283Z,4.43
2023-01-25T05:55:20.902Z,3.90
2023-01-25T05:57:50.490Z,4.77
2023-01-25T06:00:19.258Z,3.73
2023-01-25T06:02:46.959Z,5.30
2023-01-25T06:05:19.854Z,4.23
2023-01-25T06:07:47.438Z,4.23
2023-01-25T06:10:15.843Z,4.83
2023-01-25T06:12:44.621Z,5.90
2023-01-25T06:15:12.385Z,5.20
2023-01-25T06:17:40.514Z,5.27
2023-01-25T06:20:34.483Z,5.97
2023-01-25T06:23:07.803Z,4.80
2023-01-25T06:25:38.183Z,6.07
2023-01-25T06:28:06.058Z,6.23
2023-01-25T06:30:33.618Z,5.77
2023-01-25T06:33:02.158Z,6.93
2023-01-25T06:35:32.465Z,5.93
2023-01-25T06:38:00.886Z,6.33
2023-01-25T06:40:29.981Z,5.40
2023-01-25T06:43:08.009Z,6.67
2023-01-25T06:45:38.774Z,4.87
2023-01-25T06:48:06.536Z,7.90
2023-01-25T06:50:34.070Z,6.47
2023-01-25T06:53:01.585Z,6.07
2023-01-25T06:55:31.608Z,5.37
2023-01-25T06:58:01.643Z,6.17
2023-01-25T07:00:29.276Z,6.43
2023-01-25T07:02:56.849Z,5.63
2023-01-25T07:05:24.397Z,6.33
2023-01-25T07:07:51.850Z,7.37
2023-01-25T07:10:21.667Z,7.13
2023-01-25T07:12:49.212Z,6.83
2023-01-25T07:15:16.853Z,5.17
2023-01-25T07:17:44.575Z,5.57
2023-01-25T07:20:12.608Z,5.47
2023-01-25T07:22:40.119Z,6.87
2023-01-25T07:25:08.423Z,5.63
2023-01-25T07:27:36.440Z,6.77
2023-01-25T07:30:04.927Z,5.80
2023-01-25T07:32:32.380Z,5.53
2023-01-25T07:35:00.347Z,5.90
2023-01-25T07:37:28.087Z,6.23
2023-01-25T07:39:58.242Z,7.77
2023-01-25T07:42:25.747Z,5.50
2023-01-25T07:45:12.261Z,6.33
2023-01-25T07:47:39.926Z,5.03
2023-01-25T07:50:08.288Z,4.33
2023-01-25T07:52:35.777Z,5.67
2023-01-25T07:55:03.785Z,9.80
2023-01-25T07:57:31.457Z,5.77
2023-01-25T08:00:00.459Z,5.03
2023-01-25T08:02:29.371Z,6.83
2023-01-25T08:04:56.792Z,6.17
2023-01-25T08:07:24.349Z,4.03
2023-01-25T08:09:53.051Z,6.87
2023-01-25T08:12:20.577Z,4.50
2023-01-25T08:14:49.943Z,5.10
2023-01-25T08:17:17.439Z,7.40
2023-01-25T08:19:44.978Z,5.80
2023-01-25T08:22:13.661Z,6.03
2023-01-25T08:24:41.216Z,5.43
2023-01-25T08:27:08.771Z,4.97
2023-01-25T08:29:36.250Z,5.73
2023-01-25T08:32:06.530Z,8.13
2023-01-25T08:34:34.702Z,5.67
2023-01-25T08:37:02.307Z,8.83
2023-01-25T08:39:30.308Z,6.90
2023-01-25T08:41:57.894Z,4.67
2023-01-25T08:44:26.182Z,4.43
2023-01-25T08:46:53.657Z,5.57
2023-01-25T08:49:21.773Z,5.13
2023-01-25T08:51:53.018Z,4.97
2023-01-25T08:54:20.487Z,5.20
2023-01-25T08:56:48.147Z,4.40
2023-01-25T08:59:16.179Z,7.90
2023-01-25T09:01:43.686Z,11.37
2023-01-25T09:04:11.641Z,4.20
2023-01-25T09:06:39.122Z,5.03
2023-01-25T09:09:08.599Z,5.00
2023-01-25T09:11:38.298Z,9.53
2023-01-25T09:14:05.925Z,5.43
2023-01-25T09:16:33.478Z,5.73
2023-01-25T09:19:04.343Z,5.40
2023-01-25T09:21:32.604Z,5.80
2023-01-25T09:24:08.898Z,5.13
2023-01-25T09:26:46.008Z,3.90
2023-01-25T09:29:17.495Z,3.43
2023-01-25T09:31:46.332Z,4.63
2023-01-25T09:34:31.403Z,6.00
2023-01-25T09:36:58.843Z,7.37
2023-01-25T09:39:26.967Z,4.50
2023-01-25T09:42:14.873Z,6.87
2023-01-25T09:44:59.329Z,4.87
2023-01-25T09:47:52.017Z,4.07
2023-01-25T09:50:46.562Z,4.30
2023-01-25T09:53:35.913Z,5.27
2023-01-25T09:56:20.742Z,5.60
2023-01-25T09:58:52.208Z,5.53
2023-01-25T10:01:50.422Z,4.77
2023-01-25T10:04:25.372Z,4.93
2023-01-25T10:07:01.553Z,4.67
2023-01-25T10:09:58.317Z,5.33
2023-01-25T10:12:29.093Z,6.60
2023-01-25T10:14:56.696Z,4.47
2023-01-25T10:18:12.834Z,5.77
2023-01-25T10:20:45.418Z,5.67
2023-01-25T10:23:37.044Z,5.63
2023-01-25T10:26:33.682Z,5.70
2023-01-25T10:29:21.566Z,4.97
2023-01-25T10:31:55.015Z,5.07
2023-01-25T10:34:46.991Z,5.93
2023-01-25T10:37:35.173Z,4.80
2023-01-25T10:40:16.038Z,6.23
2023-01-25T10:42:54.845Z,5.57
2023-01-25T10:45:22.478Z,4.90
2023-01-25T10:48:03.525Z,6.27
2023-01-25T10:50:46.282Z,7.93
2023-01-25T10:53:37.658Z,6.67
2023-01-25T10:56:25.876Z,5.73
2023-01-25T10:59:14.638Z,6.67
2023-01-25T11:01:43.583Z,4.60
2023-01-25T11:04:35.352Z,7.40
2023-01-25T11:07:08.298Z,7.47
2023-01-25T11:09:40.301Z,18.13
2023-01-25T11:12:18.812Z,7.73
2023-01-25T11:14:51.958Z,4.50
2023-01-25T11:17:32.091Z,6.00
2023-01-25T11:20:21.003Z,5.13
2023-01-25T11:22:57.327Z,8.70
2023-01-25T11:25:55.498Z,5.93
2023-01-25T11:28:26.387Z,5.17
2023-01-25T11:30:54.484Z,3.70
2023-01-25T11:33:26.624Z,4.93
2023-01-25T11:36:14.693Z,4.03
2023-01-25T11:39:05.797Z,4.77
2023-01-25T11:42:10.231Z,7.87
2023-01-25T11:45:10.847Z,5.23
2023-01-25T11:47:50.588Z,6.13
2023-01-25T11:50:35.199Z,5.33
2023-01-25T11:53:36.583Z,7.20
2023-01-25T11:56:51.347Z,7.40
2023-01-25T11:59:56.192Z,9.27
2023-01-25T12:03:24.467Z,8.07
2023-01-25T12:06:26.247Z,6.37
2023-01-25T12:09:56.545Z,5.67
2023-01-25T12:12:38.127Z,7.17
2023-01-25T12:15:42.411Z,6.00
2023-01-25T12:18:52.915Z,4.70
2023-01-25T12:21:40.921Z,8.37
2023-01-25T12:24:37.696Z,5.57
2023-01-25T12:31:23.524Z,6.33
2023-01-25T12:34:05.428Z,5.83
2023-01-25T12:36:45.332Z,5.33
2023-01-25T12:39:32.527Z,10.93
2023-01-25T12:42:35.344Z,7.93
2023-01-25T12:45:30.688Z,7.27
2023-01-25T12:48:22.880Z,5.77
2023-01-25T12:51:01.120Z,5.63
2023-01-25T12:53:37.606Z,5.37
2023-01-25T12:56:21.471Z,12.90
2023-01-25T12:59:00.674Z,4.97
2023-01-25T13:01:42.399Z,6.53
2023-01-25T13:04:39.724Z,7.03
2023-01-25T13:08:23.211Z,6.70
2023-01-25T13:11:31.948Z,4.30
2023-01-25T13:14:27.078Z,8.17
2023-01-25T13:17:12.151Z,5.63
2023-01-25T13:19:50.202Z,12.63
2023-01-25T13:22:58.867Z,6.10
2023-01-25T13:25:27.546Z,5.37
2023-01-25T13:28:43.685Z,6.23
2023-01-25T13:31:59.001Z,5.30
2023-01-25T13:34:35.849Z,6.67
2023-01-25T13:37:20.739Z,7.10
2023-01-25T13:39:55.858Z,7.60
2023-01-25T13:42:26.505Z,4.57
2023-01-25T13:45:11.779Z,9.30
2023-01-25T13:47:41.857Z,5.33
2023-01-25T13:50:21.767Z,5.20
2023-01-25T13:53:03.542Z,6.17
2023-01-25T13:55:42.159Z,6.30
2023-01-25T13:58:36.824Z,4.97
2023-01-25T14:01:14.946Z,4.30
2023-01-25T14:03:50.981Z,7.93
2023-01-25T14:06:46.681Z,7.40
2023-01-25T14:09:20.892Z,6.03
2023-01-25T14:12:01.839Z,6.97
2023-01-25T14:14:33.156Z,4.53
2023-01-25T14:17:18.732Z,6.20
2023-01-25T14:20:10.066Z,9.13
2023-01-25T14:22:38.179Z,5.37
2023-01-25T14:25:19.315Z,4.93
2023-01-25T14:27:48.577Z,7.47
2023-01-25T14:30:31.076Z,6.37
2023-01-25T14:33:40.463Z,6.80
2023-01-25T14:36:24.588Z,7.50
2023-01-25T14:38:54.564Z,7.53
2023-01-25T14:41:48.842Z,5.43
2023-01-25T14:44:24.803Z,6.00
2023-01-25T14:47:33.919Z,7.93
2023-01-25T14:50:39.469Z,6.67
2023-01-25T14:53:27.378Z,5.50
2023-01-25T14:55:56.363Z,11.70
2023-01-25T14:58:29.214Z,6.77
2023-01-25T15:01:01.536Z,9.73
2023-01-25T15:03:31.557Z,17.40
2023-01-25T15:06:04.649Z,9.43
2023-01-25T15:08:39.478Z,6.97
2023-01-25T15:11:49.153Z,7.87
2023-01-25T15:14:22.859Z,10.17
2023-01-25T15:16:50.469Z,7.43
2023-01-25T15:19:32.543Z,12.90
2023-01-25T15:22:01.559Z,9.07
2023-01-25T15:24:30.568Z,8.73
2023-01-25T15:26:58.010Z,5.80
2023-01-25T15:29:28.489Z,6.13
2023-01-25T15:31:58.661Z,7.03
2023-01-25T15:34:32.539Z,6.93
2023-01-25T15:37:00.153Z,10.40
2023-01-25T15:39:28.899Z,11.57
2023-01-25T15:41:56.571Z,15.33
2023-01-25T15:44:24.030Z,6.37
2023-01-25T15:46:53.683Z,6.60
2023-01-25T15:49:28.936Z,8.70
2023-01-25T15:51:57.178Z,11.77
2023-01-25T15:54:24.832Z,7.87
2023-01-25T15:56:57.932Z,6.53
2023-01-25T15:59:29.542Z,15.80
2023-01-25T16:01:57.307Z,9.17
2023-01-25T16:04:26.385Z,7.03
2023-01-25T16:06:55.566Z,9.77
2023-01-25T16:09:27.356Z,11.67
2023-01-25T16:11:57.291Z,8.67
2023-01-25T16:14:31.359Z,5.93
2023-01-25T16:17:04.507Z,5.57
2023-01-25T16:19:33.333Z,6.50
2023-01-25T16:22:01.744Z,6.77
2023-01-25T16:24:29.367Z,5.87
2023-01-25T16:27:00.049Z,5.93
2023-01-25T16:29:28.342Z,9.97
2023-01-25T16:31:57.440Z,7.37
2023-01-25T16:34:25.185Z,16.90
2023-01-25T16:36:53.235Z,14.67
2023-01-25T16:39:27.085Z,19.23
2023-01-25T16:41:58.446Z,17.60
2023-01-25T16:44:26.260Z,14.33
2023-01-25T16:46:55.454Z,13.30
2023-01-25T16:49:30.718Z,14.13
2023-01-25T16:52:05.651Z,18.93
2023-01-25T16:54:35.809Z,34.47
2023-01-25T16:57:14.961Z,57.27
2023-01-25T16:59:48.193Z,29.83
2023-01-25T17:02:18.871Z,30.13
2023-01-25T17:04:47.025Z,25.33
2023-01-25T17:07:18.733Z,37.53
2023-01-25T17:09:46.319Z,26.47
2023-01-25T17:12:17.076Z,46.60
2023-01-25T17:14:45.429Z,41.13
2023-01-25T17:17:13.597Z,36.23
2023-01-25T17:19:41.295Z,34.17
2023-01-25T17:22:10.078Z,46.23
2023-01-25T17:24:39.818Z,41.73
2023-01-25T17:27:08.681Z,58.00
2023-01-25T17:29:37.612Z,43.27
2023-01-25T17:32:05.708Z,57.50
2023-01-25T17:34:35.194Z,61.77
2023-01-25T17:37:02.914Z,54.40
2023-01-25T17:39:30.849Z,57.07
2023-01-25T17:41:58.467Z,66.93
2023-01-25T17:44:26.746Z,195.13
2023-01-25T17:46:54.334Z,157.47
2023-01-25T17:49:24.901Z,142.20
2023-01-25T17:51:53.508Z,156.03
2023-01-25T17:54:21.524Z,141.93
2023-01-25T17:56:51.183Z,208.57
2023-01-25T17:59:18.725Z,166.63
2023-01-25T18:02:07.246Z,56.17
2023-01-25T18:04:40.356Z,33.60
2023-01-25T18:07:10.414Z,27.20
2023-01-25T18:09:39.122Z,36.30
2023-01-25T18:12:07.525Z,31.60
2023-01-25T18:14:36.733Z,27.30
2023-01-25T18:17:06.012Z,35.13
2023-01-25T18:19:36.341Z,29.47
2023-01-25T18:22:06.191Z,38.43
2023-01-25T18:24:37.772Z,49.20
2023-01-25T18:27:27.836Z,50.30
2023-01-25T18:30:02.650Z,35.07
2023-01-25T18:32:33.015Z,30.90
2023-01-25T18:35:04.530Z,32.60
2023-01-25T18:37:39.532Z,34.67
2023-01-25T18:40:09.907Z,37.63
2023-01-25T18:42:39.697Z,30.03
2023-01-25T18:45:12.838Z,30.20
2023-01-25T18:47:43.484Z,22.83
2023-01-25T18:50:17.695Z,28.87
2023-01-25T18:52:46.394Z,25.30
2023-01-25T18:55:15.407Z,24.53
2023-01-25T18:57:46.309Z,21.73
2023-01-25T19:00:17.232Z,18.93
2023-01-25T19:02:45.461Z,20.67
2023-01-25T19:05:14.538Z,19.07
2023-01-25T19:07:43.523Z,22.10
2023-01-25T19:10:16.711Z,20.07
2023-01-25T19:12:44.982Z,23.50
2023-01-25T19:15:13.313Z,35.20
2023-01-25T19:17:42.366Z,45.50
2023-01-25T19:20:11.390Z,48.37
2023-01-25T19:22:41.641Z,47.00
2023-01-25T19:25:11.393Z,37.93
2023-01-25T19:27:41.439Z,55.97
2023-01-25T19:30:11.910Z,42.87
2023-01-25T19:32:42.766Z,29.50
2023-01-25T19:35:12.537Z,46.20
2023-01-25T19:37:45.561Z,42.30
2023-01-25T19:40:15.985Z,42.27
2023-01-25T19:42:44.111Z,52.13
2023-01-25T19:45:24.106Z,33.90
2023-01-25T19:48:00.601Z,27.87
2023-01-25T19:50:31.314Z,43.57
2023-01-25T19:53:00.878Z,45.37
2023-01-25T19:55:28.523Z,40.23
2023-01-25T19:58:00.469Z,29.70
2023-01-25T20:00:30.460Z,28.50
2023-01-25T20:03:14.794Z,51.37
2023-01-25T20:05:51.491Z,40.70
2023-01-25T20:08:19.526Z,39.40
2023-01-25T20:10:48.843Z,34.80
2023-01-25T20:13:16.620Z,45.03
2023-01-25T20:15:48.508Z,35.37
2023-01-25T20:18:18.227Z,25.50
2023-01-25T20:20:46.576Z,23.73
2023-01-25T20:23:14.602Z,20.53
2023-01-25T20:25:42.251Z,23.90
2023-01-25T20:30:53.488Z,17.50
2023-01-25T20:33:21.788Z,18.30
2023-01-25T20:35:50.513Z,19.00
2023-01-25T20:38:18.789Z,20.60
2023-01-25T20:40:46.360Z,16.20
2023-01-25T20:43:13.932Z,12.00
2023-01-25T20:45:41.648Z,10.13
2023-01-25T20:48:10.956Z,11.07
2023-01-25T20:50:39.917Z,14.87
2023-01-25T20:53:07.436Z,13.37
2023-01-25T20:55:43.604Z,15.47
2023-01-25T20:58:12.986Z,13.77
2023-01-25T21:00:41.577Z,12.97
2023-01-25T21:03:09.406Z,10.77
2023-01-25T21:05:38.220Z,10.23
2023-01-25T21:08:05.848Z,8.13
2023-01-25T21:10:33.368Z,6.10
2023-01-25T21:13:01.075Z,7.00
2023-01-25T21:15:28.787Z,7.47
2023-01-25T21:17:57.574Z,8.07
2023-01-25T21:20:25.564Z,8.00
2023-01-25T21:23:14.673Z,7.43
2023-01-25T21:25:42.316Z,11.00
2023-01-25T21:28:10.086Z,9.33
2023-01-25T21:30:39.041Z,11.07
2023-01-25T21:33:07.693Z,8.57
2023-01-25T21:35:35.158Z,9.80
2023-01-25T21:38:02.816Z,12.90
2023-01-25T21:40:31.986Z,11.10
2023-01-25T21:42:59.634Z,16.10
2023-01-25T21:45:48.390Z,14.53
2023-01-25T21:48:36.401Z,16.00
2023-01-25T21:51:23.528Z,15.40
2023-01-25T21:53:51.068Z,19.23
2023-01-25T21:56:18.975Z,14.50
2023-01-25T21:58:49.571Z,11.90
2023-01-25T22:01:20.116Z,9.00
2023-01-25T22:03:51.946Z,10.90
2023-01-25T22:06:21.119Z,13.00
2023-01-25T22:08:48.973Z,9.77
2023-01-25T22:11:16.555Z,8.57
2023-01-25T22:13:44.109Z,9.30
2023-01-25T22:16:13.372Z,11.47
2023-01-25T22:18:44.350Z,9.90
2023-01-25T22:21:30.820Z,6.10
2023-01-25T22:24:06.825Z,6.80
2023-01-25T22:27:24.661Z,7.33
2023-01-25T22:29:52.197Z,6.50
2023-01-25T22:32:19.739Z,8.13
2023-01-25T22:34:47.190Z,8.47
2023-01-25T22:37:14.707Z,11.10
2023-01-25T22:39:42.159Z,8.47
2023-01-25T22:42:09.727Z,8.00
2023-01-25T22:44:37.207Z,16.10
2023-01-25T22:47:04.734Z,12.97
2023-01-25T22:49:32.256Z,8.17
2023-01-25T22:52:00.107Z,8.03
2023-01-25T22:54:27.619Z,9.00
2023-01-25T22:56:55.159Z,11.17
2023-01-25T22:59:22.624Z,11.43
2023-01-25T23:01:50.567Z,10.87
2023-01-25T23:04:18.464Z,12.00
2023-01-25T23:06:46.239Z,10.90
2023-01-25T23:09:13.881Z,14.17
2023-01-25T23:11:41.466Z,11.57
2023-01-25T23:14:31.225Z,11.67
2023-01-25T23:17:17.388Z,14.50
2023-01-25T23:19:45.035Z,14.07
2023-01-25T23:22:13.606Z,15.47
2023-01-25T23:24:41.070Z,11.90
2023-01-25T23:27:08.619Z,12.83
2023-01-25T23:29:37.179Z,17.20
2023-01-25T23:32:05.874Z,14.60
2023-01-25T23:34:37.436Z,15.00
2023-01-25T23:37:06.010Z,14.53
2023-01-25T23:39:34.327Z,13.83
2023-01-25T23:42:02.307Z,13.83
2023-01-25T23:44:30.076Z,14.47
2023-01-25T23:46:58.203Z,12.20
2023-01-25T23:49:25.752Z,14.87
2023-01-25T23:51:53.341Z,11.50
2023-01-25T23:54:20.861Z,12.67
2023-01-25T23:56:48.339Z,17.67
2023-01-25T23:59:15.826Z,17.57
